createdAt,value
2024-01-20T00:01:04.776Z,8.97
2024-01-20T00:03:31.797Z,8.57
2024-01-20T00:05:59.033Z,12.50
2024-01-20T00:08:26.245Z,15.77
2024-01-20T00:10:54.594Z,13.10
2024-01-20T00:13:22.120Z,13.20
2024-01-20T00:15:49.298Z,14.23
2024-01-20T00:18:16.783Z,9.80
2024-01-20T00:20:45.091Z,11.70
2024-01-20T00:23:12.437Z,12.73
2024-01-20T00:25:41.368Z,11.23
2024-01-20T00:28:09.603Z,17.00
2024-01-20T00:30:36.889Z,12.13
2024-01-20T00:33:04.771Z,13.77
2024-01-20T00:35:32.308Z,14.40
2024-01-20T00:37:59.407Z,17.40
2024-01-20T00:40:26.644Z,13.97
2024-01-20T00:42:53.636Z,12.60
2024-01-20T00:45:20.826Z,15.40
2024-01-20T00:47:47.824Z,17.10
2024-01-20T00:50:14.951Z,14.30
2024-01-20T00:52:42.062Z,10.60
2024-01-20T00:55:09.465Z,10.67
2024-01-20T00:57:36.466Z,20.90
2024-01-20T01:00:09.634Z,11.00
2024-01-20T01:02:38.165Z,15.13
2024-01-20T01:05:06.685Z,15.50
2024-01-20T01:07:34.613Z,14.50
2024-01-20T01:10:01.849Z,10.80
2024-01-20T01:12:28.920Z,15.47
2024-01-20T01:14:56.305Z,15.77
2024-01-20T01:17:23.441Z,18.23
2024-01-20T01:19:50.549Z,18.10
2024-01-20T01:22:17.590Z,13.03
2024-01-20T01:24:44.762Z,16.50
2024-01-20T01:27:11.961Z,21.17
2024-01-20T01:29:39.089Z,17.93
2024-01-20T01:32:06.415Z,14.33
2024-01-20T01:34:33.730Z,13.50
2024-01-20T01:37:00.726Z,11.90
2024-01-20T01:39:27.837Z,16.17
2024-01-20T01:41:54.867Z,14.70
2024-01-20T01:44:22.180Z,15.53
2024-01-20T01:46:49.775Z,13.17
2024-01-20T01:49:16.979Z,12.80
2024-01-20T01:51:44.769Z,19.47
2024-01-20T01:54:13.589Z,17.47
2024-01-20T01:56:42.500Z,10.47
2024-01-20T01:59:10.386Z,13.00
2024-01-20T02:01:37.379Z,11.03
2024-01-20T02:04:04.771Z,16.03
2024-01-20T02:06:32.465Z,15.57
2024-01-20T02:09:00.363Z,11.00
2024-01-20T02:11:28.334Z,16.87
2024-01-20T02:13:55.925Z,17.90
2024-01-20T02:16:23.026Z,12.63
2024-01-20T02:18:50.101Z,14.20
2024-01-20T02:21:17.152Z,13.30
2024-01-20T02:23:47.695Z,11.10
2024-01-20T02:26:14.707Z,14.13
2024-01-20T02:28:41.845Z,12.07
2024-01-20T02:31:08.961Z,14.23
2024-01-20T02:33:36.085Z,13.90
2024-01-20T02:36:03.358Z,16.23
2024-01-20T02:38:30.368Z,10.63
2024-01-20T02:40:57.597Z,13.20
2024-01-20T02:43:24.774Z,17.57
2024-01-20T02:45:51.803Z,13.73
2024-01-20T02:48:19.554Z,9.27
2024-01-20T02:50:46.755Z,12.73
2024-01-20T02:53:13.801Z,9.70
2024-01-20T02:55:40.816Z,11.50
2024-01-20T02:58:08.605Z,11.53
2024-01-20T03:00:35.684Z,10.37
2024-01-20T03:03:02.966Z,15.80
2024-01-20T03:05:30.061Z,7.20
2024-01-20T03:07:57.080Z,8.50
2024-01-20T03:10:24.214Z,11.17
2024-01-20T03:12:51.233Z,18.07
2024-01-20T03:15:18.392Z,9.07
2024-01-20T03:17:45.613Z,13.57
2024-01-20T03:20:12.818Z,12.23
2024-01-20T03:22:40.019Z,8.10
2024-01-20T03:25:07.745Z,10.10
2024-01-20T03:27:34.836Z,12.73
2024-01-20T03:30:01.975Z,11.30
2024-01-20T03:32:29.175Z,12.87
2024-01-20T03:34:56.314Z,10.63
2024-01-20T03:37:23.314Z,10.77
2024-01-20T03:39:50.491Z,11.77
2024-01-20T03:42:17.495Z,10.57
2024-01-20T03:44:44.690Z,11.13
2024-01-20T03:47:11.672Z,14.90
2024-01-20T03:49:38.992Z,14.87
2024-01-20T03:52:06.450Z,16.03
2024-01-20T03:54:33.626Z,14.07
2024-01-20T03:57:00.798Z,19.70
2024-01-20T03:59:27.853Z,10.07
2024-01-20T04:01:55.015Z,9.97
2024-01-20T04:04:22.335Z,12.93
2024-01-20T04:06:49.419Z,13.03
2024-01-20T04:09:16.434Z,12.07
2024-01-20T04:11:43.390Z,21.43
2024-01-20T04:14:10.441Z,12.93
2024-01-20T04:16:38.135Z,13.30
2024-01-20T04:19:05.250Z,10.97
2024-01-20T04:21:32.332Z,13.73
2024-01-20T04:23:59.513Z,8.97
2024-01-20T04:26:26.698Z,16.40
2024-01-20T04:28:53.786Z,13.47
2024-01-20T04:31:20.789Z,15.80
2024-01-20T04:33:48.151Z,17.40
2024-01-20T04:36:15.298Z,16.17
2024-01-20T04:38:42.331Z,12.20
2024-01-20T04:41:09.503Z,13.33
2024-01-20T04:43:36.537Z,9.20
2024-01-20T04:46:03.654Z,14.73
2024-01-20T04:48:32.624Z,13.87
2024-01-20T04:50:59.790Z,11.47
2024-01-20T04:53:27.020Z,12.17
2024-01-20T04:55:54.174Z,13.43
2024-01-20T04:58:21.365Z,12.30
2024-01-20T05:00:48.710Z,12.90
2024-01-20T05:03:15.952Z,13.17
2024-01-20T05:05:43.001Z,14.70
2024-01-20T05:08:10.156Z,14.63
2024-01-20T05:10:37.161Z,22.60
2024-01-20T05:13:05.265Z,19.60
2024-01-20T05:15:33.130Z,11.63
2024-01-20T05:18:00.545Z,13.00
2024-01-20T05:20:27.831Z,12.80
2024-01-20T05:22:54.838Z,12.93
2024-01-20T05:25:22.060Z,18.70
2024-01-20T05:27:49.055Z,12.90
2024-01-20T05:30:16.339Z,18.60
2024-01-20T05:32:43.854Z,15.20
2024-01-20T05:35:11.345Z,16.53
2024-01-20T05:37:38.364Z,23.03
2024-01-20T05:40:06.480Z,19.27
2024-01-20T05:42:33.602Z,17.63
2024-01-20T05:45:01.391Z,18.10
2024-01-20T05:47:28.436Z,16.93
2024-01-20T05:49:55.590Z,20.73
2024-01-20T05:52:22.605Z,20.37
2024-01-20T05:54:49.721Z,14.33
2024-01-20T05:57:16.841Z,16.10
2024-01-20T05:59:44.123Z,19.60
2024-01-20T06:02:11.253Z,15.77
2024-01-20T06:04:38.358Z,18.33
2024-01-20T06:07:05.536Z,17.80
2024-01-20T06:09:32.828Z,18.73
2024-01-20T06:12:00.001Z,25.50
2024-01-20T06:14:27.168Z,26.97
2024-01-20T06:16:54.135Z,21.73
2024-01-20T06:19:21.343Z,18.00
2024-01-20T06:21:48.357Z,24.00
2024-01-20T06:24:15.496Z,21.43
2024-01-20T06:26:42.694Z,34.37
2024-01-20T06:29:09.714Z,38.30
2024-01-20T06:31:36.721Z,28.97
2024-01-20T06:34:04.629Z,21.37
2024-01-20T06:36:31.758Z,24.87
2024-01-20T06:38:58.957Z,32.03
2024-01-20T06:41:26.022Z,23.90
2024-01-20T06:43:53.184Z,22.20
2024-01-20T06:46:20.355Z,23.97
2024-01-20T06:48:47.637Z,19.50
2024-01-20T06:51:17.822Z,27.73
2024-01-20T06:53:45.268Z,23.97
2024-01-20T06:56:12.624Z,18.70
2024-01-20T06:58:40.587Z,23.03
2024-01-20T07:01:07.967Z,20.37
2024-01-20T07:03:35.308Z,23.83
2024-01-20T07:06:02.849Z,21.40
2024-01-20T07:08:30.054Z,19.60
2024-01-20T07:10:57.361Z,20.93
2024-01-20T07:13:24.572Z,20.63
2024-01-20T07:15:51.719Z,22.20
2024-01-20T07:18:18.993Z,18.20
2024-01-20T07:20:46.255Z,17.77
2024-01-20T07:23:18.369Z,21.67
2024-01-20T07:25:45.416Z,21.50
2024-01-20T07:28:12.714Z,18.13
2024-01-20T07:30:39.944Z,28.57
2024-01-20T07:33:07.189Z,37.87
2024-01-20T07:35:34.386Z,26.70
2024-01-20T07:38:01.436Z,25.07
2024-01-20T07:40:28.624Z,26.37
2024-01-20T07:42:56.028Z,22.17
2024-01-20T07:45:23.942Z,21.97
2024-01-20T07:47:51.352Z,22.03
2024-01-20T07:50:18.448Z,25.83
2024-01-20T07:52:45.702Z,20.30
2024-01-20T07:55:14.037Z,26.97
2024-01-20T07:57:41.516Z,23.63
2024-01-20T08:00:12.530Z,20.57
2024-01-20T08:02:41.288Z,24.27
2024-01-20T08:05:08.474Z,18.80
2024-01-20T08:07:35.509Z,18.43
2024-01-20T08:10:03.204Z,26.07
2024-01-20T08:12:30.381Z,19.03
2024-01-20T08:14:57.469Z,31.47
2024-01-20T08:17:24.469Z,29.47
2024-01-20T08:19:51.708Z,21.13
2024-01-20T08:22:19.184Z,23.30
2024-01-20T08:24:46.744Z,19.53
2024-01-20T08:27:13.731Z,33.97
2024-01-20T08:29:40.963Z,30.43
2024-01-20T08:32:08.009Z,24.43
2024-01-20T08:34:35.374Z,25.20
2024-01-20T08:37:02.399Z,26.90
2024-01-20T08:39:29.920Z,19.53
2024-01-20T08:41:57.099Z,19.40
2024-01-20T08:44:24.325Z,27.83
2024-01-20T08:46:51.323Z,26.20
2024-01-20T08:49:18.674Z,28.57
2024-01-20T08:51:46.009Z,25.00
2024-01-20T08:54:13.250Z,22.03
2024-01-20T08:56:40.312Z,27.30
2024-01-20T08:59:07.652Z,25.87
2024-01-20T09:01:34.769Z,29.23
2024-01-20T09:04:02.803Z,26.17
2024-01-20T09:06:32.136Z,29.27
2024-01-20T09:08:59.288Z,32.83
2024-01-20T09:11:29.055Z,30.37
2024-01-20T09:13:56.076Z,34.40
2024-01-20T09:16:23.158Z,21.37
2024-01-20T09:19:01.887Z,23.30
2024-01-20T09:21:29.139Z,25.13
2024-01-20T09:23:57.385Z,32.07
2024-01-20T09:26:24.453Z,32.10
2024-01-20T09:28:51.637Z,25.43
2024-01-20T09:31:46.824Z,22.57
2024-01-20T09:34:13.959Z,26.27
2024-01-20T09:36:41.185Z,27.23
2024-01-20T09:39:19.079Z,25.73
2024-01-20T09:41:46.937Z,35.10
2024-01-20T09:44:55.423Z,21.20
2024-01-20T09:47:22.517Z,26.60
2024-01-20T09:49:50.449Z,23.13
2024-01-20T09:55:58.646Z,23.17
2024-01-20T10:05:47.773Z,46.33
2024-01-20T10:08:15.101Z,20.83
2024-01-20T10:10:42.309Z,21.83
2024-01-20T10:13:09.401Z,22.03
2024-01-20T10:15:37.307Z,21.83
2024-01-20T10:18:12.948Z,22.47
2024-01-20T10:20:40.337Z,20.30
2024-01-20T10:23:08.869Z,21.40
2024-01-20T10:25:36.753Z,21.10
2024-01-20T10:28:05.220Z,25.83
2024-01-20T10:30:34.500Z,19.50
2024-01-20T10:35:31.571Z,20.27
2024-01-20T10:38:01.471Z,20.17
2024-01-20T10:40:28.441Z,19.07
2024-01-20T10:42:57.317Z,21.27
2024-01-20T10:45:25.511Z,19.53
2024-01-20T10:48:12.155Z,20.67
2024-01-20T10:50:48.685Z,16.90
2024-01-20T10:53:15.874Z,19.33
2024-01-20T10:55:46.060Z,18.03
2024-01-20T10:58:35.707Z,17.27
2024-01-20T11:01:15.971Z,18.90
2024-01-20T11:03:52.495Z,17.53
2024-01-20T11:06:24.858Z,18.40
2024-01-20T11:08:53.192Z,17.93
2024-01-20T11:11:21.500Z,18.27
2024-01-20T11:13:49.393Z,23.37
2024-01-20T11:16:24.061Z,19.47
2024-01-20T11:21:43.378Z,19.67
2024-01-20T11:24:12.776Z,22.50
2024-01-20T11:26:40.062Z,20.43
2024-01-20T11:29:09.221Z,22.30
2024-01-20T11:31:36.794Z,15.80
2024-01-20T11:34:07.656Z,22.10
2024-01-20T11:36:37.496Z,17.63
2024-01-20T11:39:07.075Z,19.90
2024-01-20T11:41:34.887Z,18.67
2024-01-20T11:44:02.008Z,20.03
2024-01-20T11:46:29.623Z,17.90
2024-01-20T11:48:56.938Z,23.50
2024-01-20T11:51:24.128Z,20.40
2024-01-20T11:53:51.487Z,17.80
2024-01-20T11:56:18.700Z,18.60
2024-01-20T11:58:45.786Z,19.27
2024-01-20T12:01:25.351Z,17.73
2024-01-20T12:03:55.591Z,18.40
2024-01-20T12:06:22.814Z,21.33
2024-01-20T12:08:49.913Z,20.97
2024-01-20T12:11:24.810Z,17.07
2024-01-20T12:13:52.167Z,18.90
2024-01-20T12:16:19.720Z,16.47
2024-01-20T12:18:47.633Z,20.07
2024-01-20T12:21:15.018Z,21.20
2024-01-20T12:23:43.384Z,21.47
2024-01-20T12:26:29.086Z,18.47
2024-01-20T12:29:00.453Z,16.97
2024-01-20T12:31:32.880Z,16.63
2024-01-20T12:34:04.566Z,18.10
2024-01-20T12:36:43.905Z,22.27
2024-01-20T12:39:11.240Z,20.67
2024-01-20T12:41:38.719Z,21.07
2024-01-20T12:44:05.947Z,14.33
2024-01-20T12:46:33.041Z,16.97
2024-01-20T12:49:00.385Z,17.67
2024-01-20T12:51:27.817Z,17.87
2024-01-20T12:53:55.068Z,22.23
2024-01-20T12:56:22.373Z,18.97
2024-01-20T12:58:49.918Z,17.67
2024-01-20T13:01:26.326Z,16.70
2024-01-20T13:03:56.053Z,18.30
2024-01-20T13:06:23.476Z,18.63
2024-01-20T13:08:51.022Z,18.00
2024-01-20T13:11:18.086Z,19.60
2024-01-20T13:13:46.012Z,14.63
2024-01-20T13:16:13.163Z,10.53
2024-01-20T13:18:40.502Z,17.63
2024-01-20T13:21:09.629Z,12.50
2024-01-20T13:23:36.828Z,13.93
2024-01-20T13:26:04.043Z,22.07
2024-01-20T13:28:34.163Z,16.50
2024-01-20T13:31:01.809Z,14.70
2024-01-20T13:33:31.219Z,12.10
2024-01-20T13:36:35.202Z,14.17
2024-01-20T13:39:06.093Z,13.90
2024-01-20T13:41:35.234Z,17.10
2024-01-20T13:44:02.408Z,12.23
2024-01-20T13:46:29.538Z,26.40
2024-01-20T13:48:56.934Z,20.97
2024-01-20T13:51:26.079Z,17.60
2024-01-20T13:53:53.319Z,14.83
2024-01-20T13:56:22.048Z,14.57
2024-01-20T13:58:49.191Z,16.50
2024-01-20T14:01:17.833Z,14.03
2024-01-20T14:03:47.237Z,14.50
2024-01-20T14:06:14.602Z,14.47
2024-01-20T14:08:42.095Z,16.17
2024-01-20T14:11:09.561Z,14.47
2024-01-20T14:13:36.606Z,12.23
2024-01-20T14:16:04.107Z,12.57
2024-01-20T14:18:31.788Z,15.33
2024-01-20T14:20:58.998Z,15.27
2024-01-20T14:23:26.060Z,19.60
2024-01-20T14:26:06.567Z,16.10
2024-01-20T14:28:33.641Z,14.00
2024-01-20T14:31:01.686Z,15.53
2024-01-20T14:33:28.868Z,15.50
2024-01-20T14:35:56.101Z,14.27
2024-01-20T14:38:23.137Z,16.27
2024-01-20T14:40:50.389Z,13.43
2024-01-20T14:43:17.653Z,15.97
2024-01-20T14:45:46.435Z,17.27
2024-01-20T14:48:13.667Z,13.03
2024-01-20T14:50:40.872Z,17.83
2024-01-20T14:53:08.214Z,14.17
2024-01-20T14:55:35.641Z,16.83
2024-01-20T14:58:03.726Z,15.30
2024-01-20T15:00:30.889Z,14.37
2024-01-20T15:02:58.259Z,12.23
2024-01-20T15:05:27.444Z,15.63
2024-01-20T15:07:54.744Z,12.80
2024-01-20T15:10:22.622Z,15.10
2024-01-20T15:12:50.202Z,33.90
2024-01-20T15:15:19.986Z,30.40
2024-01-20T15:17:47.564Z,23.20
2024-01-20T15:20:14.811Z,16.30
2024-01-20T15:22:46.883Z,13.73
2024-01-20T15:25:18.419Z,17.83
2024-01-20T15:27:49.706Z,22.57
2024-01-20T15:30:17.198Z,11.20
2024-01-20T15:32:45.447Z,26.27
2024-01-20T15:35:14.003Z,14.50
2024-01-20T15:37:41.254Z,15.53
2024-01-20T15:40:09.871Z,13.93
2024-01-20T15:42:39.504Z,13.93
2024-01-20T15:45:07.132Z,13.07
2024-01-20T15:47:34.529Z,12.60
2024-01-20T15:50:02.022Z,25.10
2024-01-20T15:52:29.313Z,16.27
2024-01-20T15:54:57.944Z,11.47
2024-01-20T15:57:25.533Z,16.83
2024-01-20T15:59:53.776Z,26.87
2024-01-20T16:02:21.992Z,16.57
2024-01-20T16:04:49.988Z,18.47
2024-01-20T16:07:17.355Z,11.73
2024-01-20T16:09:46.576Z,9.80
2024-01-20T16:12:14.121Z,16.95
2024-01-20T16:14:44.728Z,10.97
2024-01-20T16:17:11.933Z,15.00
2024-01-20T16:19:43.730Z,9.67
2024-01-20T16:22:12.525Z,18.87
2024-01-20T16:24:41.181Z,17.13
2024-01-20T16:27:10.103Z,11.90
2024-01-20T16:29:43.042Z,13.53
2024-01-20T16:32:16.438Z,15.30
2024-01-20T16:34:45.522Z,8.60
2024-01-20T16:37:18.818Z,12.50
2024-01-20T16:39:55.495Z,14.07
2024-01-20T16:42:26.186Z,12.60
2024-01-20T16:44:55.886Z,10.97
2024-01-20T16:47:26.300Z,13.30
2024-01-20T16:49:53.904Z,12.17
2024-01-20T16:52:21.203Z,14.27
2024-01-20T16:54:49.766Z,14.27
2024-01-20T16:57:28.285Z,15.63
2024-01-20T16:59:56.886Z,10.87
2024-01-20T17:02:25.079Z,12.07
2024-01-20T17:04:54.336Z,14.23
2024-01-20T17:07:23.369Z,11.20
2024-01-20T17:09:51.934Z,10.73
2024-01-20T17:12:19.397Z,12.40
2024-01-20T17:14:47.297Z,13.97
2024-01-20T17:17:14.418Z,12.47
2024-01-20T17:19:41.955Z,18.93
2024-01-20T17:22:10.325Z,17.13
2024-01-20T17:24:42.428Z,16.80
2024-01-20T17:27:11.718Z,15.43
2024-01-20T17:29:41.049Z,13.70
2024-01-20T17:32:09.906Z,15.27
2024-01-20T17:34:38.358Z,20.63
2024-01-20T17:37:09.274Z,12.37
2024-01-20T17:39:39.330Z,17.70
2024-01-20T17:42:06.801Z,14.60
2024-01-20T17:44:35.138Z,15.60
2024-01-20T17:47:02.532Z,15.53
2024-01-20T17:49:31.850Z,21.60
2024-01-20T17:51:59.382Z,16.67
2024-01-20T17:54:32.872Z,18.33
2024-01-20T17:57:04.042Z,16.23
2024-01-20T17:59:31.349Z,14.20
2024-01-20T18:01:58.498Z,19.63
2024-01-20T18:04:26.487Z,22.57
2024-01-20T18:06:53.915Z,14.87
2024-01-20T18:09:27.582Z,21.67
2024-01-20T18:11:54.812Z,19.60
2024-01-20T18:14:22.068Z,25.73
2024-01-20T18:16:50.594Z,23.00
2024-01-20T18:19:18.189Z,16.13
2024-01-20T18:21:48.783Z,16.23
2024-01-20T18:24:24.332Z,17.73
2024-01-20T18:26:51.556Z,18.23
2024-01-20T18:29:18.684Z,17.50
2024-01-20T18:31:45.866Z,19.87
2024-01-20T18:34:13.089Z,17.93
2024-01-20T18:36:40.228Z,17.30
2024-01-20T18:39:07.381Z,20.53
2024-01-20T18:41:34.509Z,29.13
2024-01-20T18:44:01.553Z,18.40
2024-01-20T18:46:28.778Z,20.73
2024-01-20T18:48:55.962Z,22.10
2024-01-20T18:51:23.125Z,19.43
2024-01-20T18:53:57.580Z,26.80
2024-01-20T18:56:25.811Z,21.33
2024-01-20T18:58:53.077Z,21.43
2024-01-20T19:01:20.985Z,16.13
2024-01-20T19:03:48.306Z,16.17
2024-01-20T19:06:15.823Z,14.70
2024-01-20T19:08:45.269Z,19.77
2024-01-20T19:11:13.396Z,18.53
2024-01-20T19:13:41.395Z,18.13
2024-01-20T19:16:08.661Z,21.03
2024-01-20T19:18:38.935Z,15.57
2024-01-20T19:21:08.087Z,24.03
2024-01-20T19:26:24.445Z,15.90
2024-01-20T19:28:51.894Z,19.60
2024-01-20T19:31:19.262Z,15.27
2024-01-20T19:33:47.221Z,20.23
2024-01-20T19:36:14.524Z,18.23
2024-01-20T19:38:42.005Z,15.20
2024-01-20T19:41:09.913Z,21.20
2024-01-20T19:43:39.507Z,19.23
2024-01-20T19:46:06.982Z,20.20
2024-01-20T19:48:34.875Z,16.63
2024-01-20T19:51:02.404Z,17.20
2024-01-20T19:53:29.813Z,18.37
2024-01-20T19:56:05.798Z,15.53
2024-01-20T19:58:33.270Z,14.83
2024-01-20T20:01:00.999Z,16.80
2024-01-20T20:03:28.411Z,16.47
2024-01-20T20:05:55.721Z,14.53
2024-01-20T20:08:24.434Z,13.70
2024-01-20T20:10:52.347Z,17.83
2024-01-20T20:13:25.619Z,20.37
2024-01-20T20:15:54.012Z,14.90
2024-01-20T20:18:21.738Z,23.80
2024-01-20T20:20:48.917Z,15.03
2024-01-20T20:23:16.500Z,15.23
2024-01-20T20:26:03.385Z,15.23
2024-01-20T20:28:31.690Z,14.03
2024-01-20T20:31:06.776Z,15.50
2024-01-20T20:33:37.089Z,9.70
2024-01-20T20:36:04.866Z,14.30
2024-01-20T20:38:34.730Z,13.50
2024-01-20T20:41:02.240Z,13.50
2024-01-20T20:43:31.205Z,13.07
2024-01-20T20:45:58.804Z,16.40
2024-01-20T20:48:26.433Z,16.40
2024-01-20T20:50:53.747Z,16.77
2024-01-20T20:53:28.249Z,14.23
2024-01-20T20:55:55.832Z,17.43
2024-01-20T20:58:23.456Z,17.53
2024-01-20T21:00:50.876Z,15.77
2024-01-20T21:03:21.394Z,20.20
2024-01-20T21:05:48.673Z,13.13
2024-01-20T21:08:16.253Z,16.27
2024-01-20T21:10:43.613Z,13.10
2024-01-20T21:13:11.812Z,12.07
2024-01-20T21:15:47.606Z,15.70
2024-01-20T21:18:14.860Z,12.07
2024-01-20T21:20:42.261Z,13.73
2024-01-20T21:23:09.692Z,19.70
2024-01-20T21:25:37.080Z,14.33
2024-01-20T21:28:23.981Z,14.57
2024-01-20T21:30:51.402Z,12.67
2024-01-20T21:33:18.601Z,15.03
2024-01-20T21:35:45.915Z,15.43
2024-01-20T21:38:14.556Z,13.47
2024-01-20T21:40:49.181Z,13.43
2024-01-20T21:43:16.373Z,13.03
2024-01-20T21:45:45.677Z,17.67
2024-01-20T21:48:13.924Z,13.17
2024-01-20T21:50:42.256Z,15.53
2024-01-20T21:53:09.964Z,16.23
2024-01-20T21:55:37.138Z,17.23
2024-01-20T21:58:04.489Z,15.73
2024-01-20T22:00:31.887Z,19.93
2024-01-20T22:02:59.258Z,16.30
2024-01-20T22:05:27.941Z,19.97
2024-01-20T22:08:00.304Z,14.53
2024-01-20T22:10:28.427Z,20.57
2024-01-20T22:12:56.503Z,14.83
2024-01-20T22:15:23.858Z,23.23
2024-01-20T22:17:51.453Z,17.23
2024-01-20T22:20:19.028Z,17.20
2024-01-20T22:22:46.456Z,13.97
2024-01-20T22:25:20.684Z,19.27
2024-01-20T22:27:50.680Z,14.53
2024-01-20T22:30:18.135Z,15.27
2024-01-20T22:32:45.973Z,14.43
2024-01-20T22:35:13.174Z,13.20
2024-01-20T22:37:40.933Z,19.27
2024-01-20T22:40:09.654Z,14.00
2024-01-20T22:42:37.223Z,14.00
2024-01-20T22:45:11.033Z,19.33
2024-01-20T22:47:39.408Z,14.97
2024-01-20T22:50:07.138Z,14.37
2024-01-20T22:52:34.307Z,11.90
2024-01-20T22:55:01.638Z,11.10
2024-01-20T22:57:30.929Z,12.37
2024-01-20T22:59:58.226Z,15.70
2024-01-20T23:02:25.681Z,11.13
2024-01-20T23:04:55.304Z,10.33
2024-01-20T23:07:23.492Z,9.47
2024-01-20T23:09:50.551Z,10.90
2024-01-20T23:12:20.282Z,15.30
2024-01-20T23:14:47.682Z,11.87
2024-01-20T23:17:17.207Z,9.80
2024-01-20T23:19:44.277Z,16.13
2024-01-20T23:22:11.603Z,10.17
2024-01-20T23:24:39.042Z,11.20
2024-01-20T23:27:06.627Z,11.17
2024-01-20T23:29:33.688Z,10.73
2024-01-20T23:32:00.987Z,12.23
2024-01-20T23:34:28.279Z,10.33
2024-01-20T23:36:55.429Z,9.17
2024-01-20T23:39:22.773Z,13.77
2024-01-20T23:41:50.198Z,10.37
2024-01-20T23:44:17.281Z,16.40
2024-01-20T23:46:44.392Z,15.03
2024-01-20T23:49:13.187Z,10.43
2024-01-20T23:51:40.705Z,13.43
2024-01-20T23:54:08.117Z,12.20
2024-01-20T23:56:35.278Z,14.87
2024-01-20T23:59:03.135Z,12.70
